Terminal Aerodrome Forecast
Issued by NWS Cleveland, OH

Home | Current Version | Previous Version | Graphics & Text | Print | Product List | Glossary On
Versions: 1 2 3 4 5 6 7 8 9 10 11 12 13 14 15 16 17 18 19 20 21 22 23 24 25 26
078
FTUS41 KCLE 191726
TAFERI
TAF
KERI 191726Z 1918/2018 26007KT 6SM BR OVC010
     FM200400 13007KT P6SM OVC100
     FM201400 13010KT 6SM -RA OVC015
     FM201600 15010KT 4SM -RA BR OVC007=

USA.gov is the U.S. government's official web portal to all federal, state and local government web resources and services.